sensor_id;sensor_type;location;lat;lon;timestamp;temperature;humidity
38500;DHT22;24269;51.894;4.622;2022-09-09T00:00:33;15.60;99.90
38500;DHT22;24269;51.894;4.622;2022-09-09T00:05:44;15.60;99.90
38500;DHT22;24269;51.894;4.622;2022-09-09T00:08:19;15.60;99.90
38500;DHT22;24269;51.894;4.622;2022-09-09T00:10:45;15.50;99.90
38500;DHT22;24269;51.894;4.622;2022-09-09T00:16:25;15.50;99.90
38500;DHT22;24269;51.894;4.622;2022-09-09T00:19:14;15.40;99.90
38500;DHT22;24269;51.894;4.622;2022-09-09T00:27:08;15.40;99.90
38500;DHT22;24269;51.894;4.622;2022-09-09T00:29:53;15.40;99.90
38500;DHT22;24269;51.894;4.622;2022-09-09T00:32:20;15.50;99.90
38500;DHT22;24269;51.894;4.622;2022-09-09T00:35:04;15.40;99.90
38500;DHT22;24269;51.894;4.622;2022-09-09T00:37:38;15.40;99.90
38500;DHT22;24269;51.894;4.622;2022-09-09T00:40:33;15.40;99.90
38500;DHT22;24269;51.894;4.622;2022-09-09T00:55:05;15.40;99.90
38500;DHT22;24269;51.894;4.622;2022-09-09T00:57:33;15.30;99.90
38500;DHT22;24269;51.894;4.622;2022-09-09T01:00:38;15.40;99.90
38500;DHT22;24269;51.894;4.622;2022-09-09T01:12:22;15.30;99.90
38500;DHT22;24269;51.894;4.622;2022-09-09T01:14:52;15.40;99.90
38500;DHT22;24269;51.894;4.622;2022-09-09T01:17:19;15.40;99.90
38500;DHT22;24269;51.894;4.622;2022-09-09T01:22:33;15.40;99.90
38500;DHT22;24269;51.894;4.622;2022-09-09T01:27:40;15.40;99.90
38500;DHT22;24269;51.894;4.622;2022-09-09T01:30:11;15.50;99.90
38500;DHT22;24269;51.894;4.622;2022-09-09T01:32:43;15.50;99.90
38500;DHT22;24269;51.894;4.622;2022-09-09T01:37:54;15.60;99.90
38500;DHT22;24269;51.894;4.622;2022-09-09T01:40:20;15.60;99.90
38500;DHT22;24269;51.894;4.622;2022-09-09T01:42:45;15.60;99.90
38500;DHT22;24269;51.894;4.622;2022-09-09T01:45:11;15.60;99.90
38500;DHT22;24269;51.894;4.622;2022-09-09T01:47:36;15.60;99.90
38500;DHT22;24269;51.894;4.622;2022-09-09T01:50:03;15.50;99.90
38500;DHT22;24269;51.894;4.622;2022-09-09T01:52:29;15.50;99.90
38500;DHT22;24269;51.894;4.622;2022-09-09T01:54:56;15.50;99.90
38500;DHT22;24269;51.894;4.622;2022-09-09T01:57:32;15.50;99.90
38500;DHT22;24269;51.894;4.622;2022-09-09T02:05:25;15.50;99.90
38500;DHT22;24269;51.894;4.622;2022-09-09T02:08:09;15.50;99.90
38500;DHT22;24269;51.894;4.622;2022-09-09T02:10:48;15.50;99.90
38500;DHT22;24269;51.894;4.622;2022-09-09T02:13:20;15.60;99.90
38500;DHT22;24269;51.894;4.622;2022-09-09T02:15:58;15.60;99.90
38500;DHT22;24269;51.894;4.622;2022-09-09T02:21:06;15.50;99.90
38500;DHT22;24269;51.894;4.622;2022-09-09T02:23:34;15.50;99.90
38500;DHT22;24269;51.894;4.622;2022-09-09T02:26:00;15.50;99.90
38500;DHT22;24269;51.894;4.622;2022-09-09T02:28:30;15.50;99.90
38500;DHT22;24269;51.894;4.622;2022-09-09T02:30:57;15.50;99.90
38500;DHT22;24269;51.894;4.622;2022-09-09T02:33:26;15.40;99.90
38500;DHT22;24269;51.894;4.622;2022-09-09T02:35:53;15.40;99.90
38500;DHT22;24269;51.894;4.622;2022-09-09T02:38:24;15.40;99.90
38500;DHT22;24269;51.894;4.622;2022-09-09T02:40:51;15.40;99.90
38500;DHT22;24269;51.894;4.622;2022-09-09T02:43:17;15.40;99.90
38500;DHT22;24269;51.894;4.622;2022-09-09T02:48:59;15.50;99.90
38500;DHT22;24269;51.894;4.622;2022-09-09T02:54:16;15.50;99.90
38500;DHT22;24269;51.894;4.622;2022-09-09T02:56:48;15.50;99.90
38500;DHT22;24269;51.894;4.622;2022-09-09T02:59:15;15.50;99.90
38500;DHT22;24269;51.894;4.622;2022-09-09T03:01:41;15.50;99.90
38500;DHT22;24269;51.894;4.622;2022-09-09T03:04:07;15.50;99.90
38500;DHT22;24269;51.894;4.622;2022-09-09T03:06:33;15.60;99.90
38500;DHT22;24269;51.894;4.622;2022-09-09T03:08:58;15.60;99.90
38500;DHT22;24269;51.894;4.622;2022-09-09T03:11:26;15.50;99.90
38500;DHT22;24269;51.894;4.622;2022-09-09T03:13:53;15.50;99.90
38500;DHT22;24269;51.894;4.622;2022-09-09T03:16:20;15.50;99.90
38500;DHT22;24269;51.894;4.622;2022-09-09T03:18:46;15.50;99.90
38500;DHT22;24269;51.894;4.622;2022-09-09T03:21:12;15.50;99.90
38500;DHT22;24269;51.894;4.622;2022-09-09T03:23:37;15.40;99.90
38500;DHT22;24269;51.894;4.622;2022-09-09T03:26:03;15.50;99.90
38500;DHT22;24269;51.894;4.622;2022-09-09T03:28:29;15.40;99.90
38500;DHT22;24269;51.894;4.622;2022-09-09T03:31:06;15.50;99.90
38500;DHT22;24269;51.894;4.622;2022-09-09T03:33:31;15.40;99.90
38500;DHT22;24269;51.894;4.622;2022-09-09T03:35:57;15.50;99.90
38500;DHT22;24269;51.894;4.622;2022-09-09T03:38:24;15.40;99.90
38500;DHT22;24269;51.894;4.622;2022-09-09T03:40:55;15.40;99.90
38500;DHT22;24269;51.894;4.622;2022-09-09T03:43:23;15.40;99.90
38500;DHT22;24269;51.894;4.622;2022-09-09T03:45:49;15.40;99.90
38500;DHT22;24269;51.894;4.622;2022-09-09T03:48:16;15.40;99.90
38500;DHT22;24269;51.894;4.622;2022-09-09T03:50:49;15.40;99.90
38500;DHT22;24269;51.894;4.622;2022-09-09T03:53:17;15.40;99.90
38500;DHT22;24269;51.894;4.622;2022-09-09T03:55:47;15.40;99.90
38500;DHT22;24269;51.894;4.622;2022-09-09T03:58:14;15.30;99.90
38500;DHT22;24269;51.894;4.622;2022-09-09T04:00:41;15.40;99.90
38500;DHT22;24269;51.894;4.622;2022-09-09T04:03:11;15.40;99.90
38500;DHT22;24269;51.894;4.622;2022-09-09T04:05:38;15.30;99.90
38500;DHT22;24269;51.894;4.622;2022-09-09T04:08:06;15.30;99.90
38500;DHT22;24269;51.894;4.622;2022-09-09T04:10:32;15.30;99.90
38500;DHT22;24269;51.894;4.622;2022-09-09T04:12:58;15.40;99.90
38500;DHT22;24269;51.894;4.622;2022-09-09T04:15:25;15.30;99.90
38500;DHT22;24269;51.894;4.622;2022-09-09T04:17:50;15.40;99.90
38500;DHT22;24269;51.894;4.622;2022-09-09T04:20:16;15.30;99.90
38500;DHT22;24269;51.894;4.622;2022-09-09T04:22:42;15.30;99.90
38500;DHT22;24269;51.894;4.622;2022-09-09T04:25:07;15.30;99.90
38500;DHT22;24269;51.894;4.622;2022-09-09T04:27:33;15.30;99.90
38500;DHT22;24269;51.894;4.622;2022-09-09T04:29:59;15.30;99.90
38500;DHT22;24269;51.894;4.622;2022-09-09T04:32:25;15.30;99.90
38500;DHT22;24269;51.894;4.622;2022-09-09T04:34:53;15.30;99.90
38500;DHT22;24269;51.894;4.622;2022-09-09T04:37:19;15.40;99.90
38500;DHT22;24269;51.894;4.622;2022-09-09T04:39:44;15.30;99.90
38500;DHT22;24269;51.894;4.622;2022-09-09T04:42:10;15.40;99.90
38500;DHT22;24269;51.894;4.622;2022-09-09T04:44:38;15.40;99.90
38500;DHT22;24269;51.894;4.622;2022-09-09T04:47:04;15.30;99.90
38500;DHT22;24269;51.894;4.622;2022-09-09T04:49:30;15.40;99.90
38500;DHT22;24269;51.894;4.622;2022-09-09T04:51:56;15.30;99.90
38500;DHT22;24269;51.894;4.622;2022-09-09T04:54:22;15.40;99.90
38500;DHT22;24269;51.894;4.622;2022-09-09T04:56:50;15.40;99.90
38500;DHT22;24269;51.894;4.622;2022-09-09T04:59:16;15.40;99.90
38500;DHT22;24269;51.894;4.622;2022-09-09T05:01:42;15.40;99.90
38500;DHT22;24269;51.894;4.622;2022-09-09T05:04:07;15.40;99.90
38500;DHT22;24269;51.894;4.622;2022-09-09T05:06:34;15.30;99.90
38500;DHT22;24269;51.894;4.622;2022-09-09T05:09:01;15.30;99.90
38500;DHT22;24269;51.894;4.622;2022-09-09T05:11:29;15.40;99.90
38500;DHT22;24269;51.894;4.622;2022-09-09T05:13:55;15.30;99.90
38500;DHT22;24269;51.894;4.622;2022-09-09T05:16:24;15.30;99.90
38500;DHT22;24269;51.894;4.622;2022-09-09T05:18:49;15.30;99.90
38500;DHT22;24269;51.894;4.622;2022-09-09T05:21:17;15.30;99.90
38500;DHT22;24269;51.894;4.622;2022-09-09T05:23:45;15.30;99.90
38500;DHT22;24269;51.894;4.622;2022-09-09T05:26:16;15.30;99.90
38500;DHT22;24269;51.894;4.622;2022-09-09T05:28:42;15.30;99.90
38500;DHT22;24269;51.894;4.622;2022-09-09T05:31:09;15.30;99.90
38500;DHT22;24269;51.894;4.622;2022-09-09T05:33:36;15.30;99.90
38500;DHT22;24269;51.894;4.622;2022-09-09T05:36:07;15.30;99.90
38500;DHT22;24269;51.894;4.622;2022-09-09T05:38:34;15.30;99.90
38500;DHT22;24269;51.894;4.622;2022-09-09T05:41:01;15.30;99.90
38500;DHT22;24269;51.894;4.622;2022-09-09T05:43:28;15.40;99.90
38500;DHT22;24269;51.894;4.622;2022-09-09T05:48:30;15.40;99.90
38500;DHT22;24269;51.894;4.622;2022-09-09T05:50:57;15.50;99.90
38500;DHT22;24269;51.894;4.622;2022-09-09T05:53:23;15.50;99.90
38500;DHT22;24269;51.894;4.622;2022-09-09T05:55:49;15.60;99.90
38500;DHT22;24269;51.894;4.622;2022-09-09T05:58:15;15.60;99.90
38500;DHT22;24269;51.894;4.622;2022-09-09T06:00:42;15.60;99.90
38500;DHT22;24269;51.894;4.622;2022-09-09T06:03:11;15.70;99.90
38500;DHT22;24269;51.894;4.622;2022-09-09T06:05:36;15.70;99.90
38500;DHT22;24269;51.894;4.622;2022-09-09T06:08:03;15.70;99.90
38500;DHT22;24269;51.894;4.622;2022-09-09T06:10:28;15.80;99.90
38500;DHT22;24269;51.894;4.622;2022-09-09T06:12:54;15.70;99.90
38500;DHT22;24269;51.894;4.622;2022-09-09T06:15:20;15.80;99.90
38500;DHT22;24269;51.894;4.622;2022-09-09T06:17:45;15.80;99.90
38500;DHT22;24269;51.894;4.622;2022-09-09T06:20:11;15.80;99.90
38500;DHT22;24269;51.894;4.622;2022-09-09T06:22:40;15.90;99.90
38500;DHT22;24269;51.894;4.622;2022-09-09T06:25:07;15.90;99.90
38500;DHT22;24269;51.894;4.622;2022-09-09T06:27:33;16.00;99.90
38500;DHT22;24269;51.894;4.622;2022-09-09T06:29:58;16.10;99.90
38500;DHT22;24269;51.894;4.622;2022-09-09T06:32:24;16.20;99.90
38500;DHT22;24269;51.894;4.622;2022-09-09T06:34:52;16.30;99.90
38500;DHT22;24269;51.894;4.622;2022-09-09T06:37:17;16.30;99.90
38500;DHT22;24269;51.894;4.622;2022-09-09T06:39:43;16.30;99.90
38500;DHT22;24269;51.894;4.622;2022-09-09T06:42:09;16.30;99.90
38500;DHT22;24269;51.894;4.622;2022-09-09T06:44:34;16.30;99.90
38500;DHT22;24269;51.894;4.622;2022-09-09T06:47:00;16.30;99.90
38500;DHT22;24269;51.894;4.622;2022-09-09T06:49:26;16.40;99.90
38500;DHT22;24269;51.894;4.622;2022-09-09T06:51:51;16.30;99.90
38500;DHT22;24269;51.894;4.622;2022-09-09T06:54:17;16.40;99.90
38500;DHT22;24269;51.894;4.622;2022-09-09T06:56:43;16.40;99.90
38500;DHT22;24269;51.894;4.622;2022-09-09T06:59:11;16.40;99.90
38500;DHT22;24269;51.894;4.622;2022-09-09T07:01:42;16.40;99.90
38500;DHT22;24269;51.894;4.622;2022-09-09T07:04:09;16.40;99.90
38500;DHT22;24269;51.894;4.622;2022-09-09T07:06:44;16.40;99.90
38500;DHT22;24269;51.894;4.622;2022-09-09T07:09:13;16.50;99.90
38500;DHT22;24269;51.894;4.622;2022-09-09T07:14:06;16.60;99.90
38500;DHT22;24269;51.894;4.622;2022-09-09T07:16:33;16.50;99.90
38500;DHT22;24269;51.894;4.622;2022-09-09T07:18:59;16.60;99.90
38500;DHT22;24269;51.894;4.622;2022-09-09T07:21:26;16.60;99.90
38500;DHT22;24269;51.894;4.622;2022-09-09T07:23:52;16.60;99.90
38500;DHT22;24269;51.894;4.622;2022-09-09T07:26:20;16.50;99.90
38500;DHT22;24269;51.894;4.622;2022-09-09T07:28:47;16.60;99.90
38500;DHT22;24269;51.894;4.622;2022-09-09T07:31:14;16.60;99.90
38500;DHT22;24269;51.894;4.622;2022-09-09T07:33:42;16.60;99.90
38500;DHT22;24269;51.894;4.622;2022-09-09T07:36:12;16.60;99.90
38500;DHT22;24269;51.894;4.622;2022-09-09T07:38:42;16.60;99.90
38500;DHT22;24269;51.894;4.622;2022-09-09T07:41:14;16.60;99.90
38500;DHT22;24269;51.894;4.622;2022-09-09T07:43:44;16.60;99.90
38500;DHT22;24269;51.894;4.622;2022-09-09T07:46:11;16.60;99.90
38500;DHT22;24269;51.894;4.622;2022-09-09T07:48:37;16.60;99.90
38500;DHT22;24269;51.894;4.622;2022-09-09T07:51:09;16.50;99.90
38500;DHT22;24269;51.894;4.622;2022-09-09T07:53:38;16.50;99.90
38500;DHT22;24269;51.894;4.622;2022-09-09T07:56:08;16.50;99.90
38500;DHT22;24269;51.894;4.622;2022-09-09T07:58:35;16.50;99.90
38500;DHT22;24269;51.894;4.622;2022-09-09T08:01:09;16.50;99.90
38500;DHT22;24269;51.894;4.622;2022-09-09T08:03:36;16.50;99.90
38500;DHT22;24269;51.894;4.622;2022-09-09T08:06:04;16.50;99.90
38500;DHT22;24269;51.894;4.622;2022-09-09T08:08:30;16.60;99.90
38500;DHT22;24269;51.894;4.622;2022-09-09T08:11:04;16.70;99.90
38500;DHT22;24269;51.894;4.622;2022-09-09T08:13:30;16.70;99.90
38500;DHT22;24269;51.894;4.622;2022-09-09T08:16:14;16.80;99.90
38500;DHT22;24269;51.894;4.622;2022-09-09T08:18:40;16.80;99.90
38500;DHT22;24269;51.894;4.622;2022-09-09T08:23:32;16.80;99.90
38500;DHT22;24269;51.894;4.622;2022-09-09T08:26:04;16.90;99.90
38500;DHT22;24269;51.894;4.622;2022-09-09T08:28:30;17.00;99.90
38500;DHT22;24269;51.894;4.622;2022-09-09T08:31:04;17.00;99.90
38500;DHT22;24269;51.894;4.622;2022-09-09T08:33:29;17.00;99.90
38500;DHT22;24269;51.894;4.622;2022-09-09T08:35:55;16.90;99.90
38500;DHT22;24269;51.894;4.622;2022-09-09T08:38:21;16.90;99.90
38500;DHT22;24269;51.894;4.622;2022-09-09T08:40:49;16.90;99.90
38500;DHT22;24269;51.894;4.622;2022-09-09T08:43:16;16.90;99.90
38500;DHT22;24269;51.894;4.622;2022-09-09T08:45:55;16.90;99.90
38500;DHT22;24269;51.894;4.622;2022-09-09T08:51:48;16.90;99.90
38500;DHT22;24269;51.894;4.622;2022-09-09T08:54:15;16.90;99.90
38500;DHT22;24269;51.894;4.622;2022-09-09T08:56:40;16.90;99.90
38500;DHT22;24269;51.894;4.622;2022-09-09T08:59:10;16.90;99.90
38500;DHT22;24269;51.894;4.622;2022-09-09T09:02:09;16.90;99.90
38500;DHT22;24269;51.894;4.622;2022-09-09T09:04:54;16.90;99.90
38500;DHT22;24269;51.894;4.622;2022-09-09T09:12:56;17.00;99.90
38500;DHT22;24269;51.894;4.622;2022-09-09T09:15:30;17.00;99.90
38500;DHT22;24269;51.894;4.622;2022-09-09T09:17:56;17.00;99.90
38500;DHT22;24269;51.894;4.622;2022-09-09T09:20:32;17.00;99.90
38500;DHT22;24269;51.894;4.622;2022-09-09T09:23:01;17.00;99.90
38500;DHT22;24269;51.894;4.622;2022-09-09T09:25:38;17.00;99.90
38500;DHT22;24269;51.894;4.622;2022-09-09T09:28:17;17.00;99.90
38500;DHT22;24269;51.894;4.622;2022-09-09T09:30:59;17.00;99.90
38500;DHT22;24269;51.894;4.622;2022-09-09T09:33:35;17.00;99.90
38500;DHT22;24269;51.894;4.622;2022-09-09T09:36:02;17.10;99.90
38500;DHT22;24269;51.894;4.622;2022-09-09T09:38:28;17.00;99.90
38500;DHT22;24269;51.894;4.622;2022-09-09T09:40:57;17.10;99.90
38500;DHT22;24269;51.894;4.622;2022-09-09T09:43:30;17.10;99.90
38500;DHT22;24269;51.894;4.622;2022-09-09T09:45:57;17.30;99.90
38500;DHT22;24269;51.894;4.622;2022-09-09T09:48:24;17.40;99.90
38500;DHT22;24269;51.894;4.622;2022-09-09T09:50:57;17.50;99.90
38500;DHT22;24269;51.894;4.622;2022-09-09T09:53:37;17.60;99.90
38500;DHT22;24269;51.894;4.622;2022-09-09T09:56:08;17.70;99.90
38500;DHT22;24269;51.894;4.622;2022-09-09T10:03:35;17.80;99.90
38500;DHT22;24269;51.894;4.622;2022-09-09T10:06:06;17.70;99.90
38500;DHT22;24269;51.894;4.622;2022-09-09T10:08:43;17.80;99.90
38500;DHT22;24269;51.894;4.622;2022-09-09T10:13:53;17.90;99.90
38500;DHT22;24269;51.894;4.622;2022-09-09T10:18:59;17.90;99.90
38500;DHT22;24269;51.894;4.622;2022-09-09T10:26:50;17.70;99.90
38500;DHT22;24269;51.894;4.622;2022-09-09T10:37:44;17.60;99.90
38500;DHT22;24269;51.894;4.622;2022-09-09T10:42:43;17.70;99.90
38500;DHT22;24269;51.894;4.622;2022-09-09T10:45:23;17.60;99.90
38500;DHT22;24269;51.894;4.622;2022-09-09T10:48:50;17.60;99.90
38500;DHT22;24269;51.894;4.622;2022-09-09T10:56:30;17.60;99.90
38500;DHT22;24269;51.894;4.622;2022-09-09T10:59:02;17.60;99.90
38500;DHT22;24269;51.894;4.622;2022-09-09T11:01:42;17.70;99.90
38500;DHT22;24269;51.894;4.622;2022-09-09T11:04:22;17.80;99.90
38500;DHT22;24269;51.894;4.622;2022-09-09T11:06:54;17.90;99.90
38500;DHT22;24269;51.894;4.622;2022-09-09T11:09:26;18.10;99.90
38500;DHT22;24269;51.894;4.622;2022-09-09T11:11:58;18.30;99.90
38500;DHT22;24269;51.894;4.622;2022-09-09T11:14:48;18.40;99.90
38500;DHT22;24269;51.894;4.622;2022-09-09T11:17:18;18.50;99.90
38500;DHT22;24269;51.894;4.622;2022-09-09T11:19:45;18.50;99.90
38500;DHT22;24269;51.894;4.622;2022-09-09T11:25:23;18.50;99.90
38500;DHT22;24269;51.894;4.622;2022-09-09T11:28:06;18.50;99.90
38500;DHT22;24269;51.894;4.622;2022-09-09T11:41:48;18.20;99.90
38500;DHT22;24269;51.894;4.622;2022-09-09T11:44:27;18.20;99.90
38500;DHT22;24269;51.894;4.622;2022-09-09T11:46:53;18.20;99.90
38500;DHT22;24269;51.894;4.622;2022-09-09T11:49:28;18.10;99.90
38500;DHT22;24269;51.894;4.622;2022-09-09T11:51:54;18.00;99.90
38500;DHT22;24269;51.894;4.622;2022-09-09T11:54:33;18.00;99.90
38500;DHT22;24269;51.894;4.622;2022-09-09T11:57:02;18.10;99.90
38500;DHT22;24269;51.894;4.622;2022-09-09T11:59:31;18.30;99.90
38500;DHT22;24269;51.894;4.622;2022-09-09T12:04:35;18.20;99.90
38500;DHT22;24269;51.894;4.622;2022-09-09T12:07:29;18.20;99.90
38500;DHT22;24269;51.894;4.622;2022-09-09T12:10:03;18.10;99.90
38500;DHT22;24269;51.894;4.622;2022-09-09T12:12:36;18.20;99.90
38500;DHT22;24269;51.894;4.622;2022-09-09T12:17:48;18.20;99.90
38500;DHT22;24269;51.894;4.622;2022-09-09T12:20:16;18.10;99.90
38500;DHT22;24269;51.894;4.622;2022-09-09T12:25:52;18.00;99.90
38500;DHT22;24269;51.894;4.622;2022-09-09T12:28:22;18.10;99.90
38500;DHT22;24269;51.894;4.622;2022-09-09T12:31:02;18.10;99.90
38500;DHT22;24269;51.894;4.622;2022-09-09T12:33:39;18.10;99.90
38500;DHT22;24269;51.894;4.622;2022-09-09T12:36:18;18.10;99.90
38500;DHT22;24269;51.894;4.622;2022-09-09T12:38:45;18.00;99.90
38500;DHT22;24269;51.894;4.622;2022-09-09T12:41:24;17.90;99.90
38500;DHT22;24269;51.894;4.622;2022-09-09T12:43:51;17.70;99.90
38500;DHT22;24269;51.894;4.622;2022-09-09T12:48:54;17.50;99.90
38500;DHT22;24269;51.894;4.622;2022-09-09T12:51:31;17.40;99.90
38500;DHT22;24269;51.894;4.622;2022-09-09T12:53:58;17.30;99.90
38500;DHT22;24269;51.894;4.622;2022-09-09T12:56:27;17.30;99.90
38500;DHT22;24269;51.894;4.622;2022-09-09T12:58:56;17.20;99.90
38500;DHT22;24269;51.894;4.622;2022-09-09T13:01:32;17.10;99.90
38500;DHT22;24269;51.894;4.622;2022-09-09T13:03:59;17.00;99.90
38500;DHT22;24269;51.894;4.622;2022-09-09T13:06:27;16.90;99.90
38500;DHT22;24269;51.894;4.622;2022-09-09T13:08:54;16.90;99.90
38500;DHT22;24269;51.894;4.622;2022-09-09T13:11:43;16.80;99.90
38500;DHT22;24269;51.894;4.622;2022-09-09T13:14:22;16.80;99.90
38500;DHT22;24269;51.894;4.622;2022-09-09T13:16:56;16.80;99.90
38500;DHT22;24269;51.894;4.622;2022-09-09T13:19:22;16.90;99.90
38500;DHT22;24269;51.894;4.622;2022-09-09T13:21:51;17.00;99.90
38500;DHT22;24269;51.894;4.622;2022-09-09T13:24:28;17.20;99.90
38500;DHT22;24269;51.894;4.622;2022-09-09T13:27:02;17.80;99.90
38500;DHT22;24269;51.894;4.622;2022-09-09T13:29:30;18.40;99.90
38500;DHT22;24269;51.894;4.622;2022-09-09T13:32:12;18.70;99.90
38500;DHT22;24269;51.894;4.622;2022-09-09T13:34:51;18.80;99.90
38500;DHT22;24269;51.894;4.622;2022-09-09T13:37:28;18.80;99.90
38500;DHT22;24269;51.894;4.622;2022-09-09T13:39:55;18.80;99.90
38500;DHT22;24269;51.894;4.622;2022-09-09T13:42:25;18.80;99.90
38500;DHT22;24269;51.894;4.622;2022-09-09T13:44:51;18.80;99.90
38500;DHT22;24269;51.894;4.622;2022-09-09T13:47:22;18.90;99.90
38500;DHT22;24269;51.894;4.622;2022-09-09T13:49:51;18.80;99.90
38500;DHT22;24269;51.894;4.622;2022-09-09T13:52:18;18.80;99.90
38500;DHT22;24269;51.894;4.622;2022-09-09T13:54:51;18.60;99.90
38500;DHT22;24269;51.894;4.622;2022-09-09T13:57:22;18.50;99.90
38500;DHT22;24269;51.894;4.622;2022-09-09T13:59:51;18.40;99.90
38500;DHT22;24269;51.894;4.622;2022-09-09T14:02:17;18.30;99.90
38500;DHT22;24269;51.894;4.622;2022-09-09T14:04:43;18.20;99.90
38500;DHT22;24269;51.894;4.622;2022-09-09T14:07:12;18.20;99.90
38500;DHT22;24269;51.894;4.622;2022-09-09T14:09:38;18.10;99.90
38500;DHT22;24269;51.894;4.622;2022-09-09T14:12:05;18.00;99.90
38500;DHT22;24269;51.894;4.622;2022-09-09T14:14:31;17.90;99.90
38500;DHT22;24269;51.894;4.622;2022-09-09T14:16:56;17.90;99.90
38500;DHT22;24269;51.894;4.622;2022-09-09T14:19:22;17.90;99.90
38500;DHT22;24269;51.894;4.622;2022-09-09T14:21:47;17.80;99.90
38500;DHT22;24269;51.894;4.622;2022-09-09T14:24:13;17.70;99.90
38500;DHT22;24269;51.894;4.622;2022-09-09T14:26:39;17.70;99.90
38500;DHT22;24269;51.894;4.622;2022-09-09T14:29:06;17.80;99.90
38500;DHT22;24269;51.894;4.622;2022-09-09T14:31:31;17.70;99.90
38500;DHT22;24269;51.894;4.622;2022-09-09T14:33:57;17.70;99.90
38500;DHT22;24269;51.894;4.622;2022-09-09T14:36:24;17.80;99.90
38500;DHT22;24269;51.894;4.622;2022-09-09T14:38:50;17.80;99.90
38500;DHT22;24269;51.894;4.622;2022-09-09T14:41:17;17.90;99.90
38500;DHT22;24269;51.894;4.622;2022-09-09T14:43:44;17.90;99.90
38500;DHT22;24269;51.894;4.622;2022-09-09T14:46:15;17.90;99.90
38500;DHT22;24269;51.894;4.622;2022-09-09T14:48:41;17.90;99.90
38500;DHT22;24269;51.894;4.622;2022-09-09T14:51:12;17.90;99.90
38500;DHT22;24269;51.894;4.622;2022-09-09T14:53:39;17.90;99.90
38500;DHT22;24269;51.894;4.622;2022-09-09T14:56:12;18.00;99.90
38500;DHT22;24269;51.894;4.622;2022-09-09T14:58:38;18.20;99.90
38500;DHT22;24269;51.894;4.622;2022-09-09T15:01:15;18.20;99.90
38500;DHT22;24269;51.894;4.622;2022-09-09T15:03:43;18.40;99.90
38500;DHT22;24269;51.894;4.622;2022-09-09T15:06:14;18.50;99.90
38500;DHT22;24269;51.894;4.622;2022-09-09T15:08:44;18.60;99.90
38500;DHT22;24269;51.894;4.622;2022-09-09T15:11:11;18.90;99.90
38500;DHT22;24269;51.894;4.622;2022-09-09T15:13:38;19.00;99.90
38500;DHT22;24269;51.894;4.622;2022-09-09T15:16:15;19.50;99.90
38500;DHT22;24269;51.894;4.622;2022-09-09T15:18:41;19.90;99.90
38500;DHT22;24269;51.894;4.622;2022-09-09T15:21:17;19.90;99.90
38500;DHT22;24269;51.894;4.622;2022-09-09T15:23:44;19.80;99.90
38500;DHT22;24269;51.894;4.622;2022-09-09T15:26:10;19.60;99.90
38500;DHT22;24269;51.894;4.622;2022-09-09T15:28:37;19.50;99.90
38500;DHT22;24269;51.894;4.622;2022-09-09T15:31:15;19.50;99.90
38500;DHT22;24269;51.894;4.622;2022-09-09T15:33:47;19.50;99.90
38500;DHT22;24269;51.894;4.622;2022-09-09T15:36:24;19.40;99.90
38500;DHT22;24269;51.894;4.622;2022-09-09T15:38:51;19.40;99.90
38500;DHT22;24269;51.894;4.622;2022-09-09T15:41:19;19.40;99.90
38500;DHT22;24269;51.894;4.622;2022-09-09T15:43:47;19.40;99.90
38500;DHT22;24269;51.894;4.622;2022-09-09T15:48:45;19.40;99.90
38500;DHT22;24269;51.894;4.622;2022-09-09T15:51:11;19.40;99.90
38500;DHT22;24269;51.894;4.622;2022-09-09T15:53:37;19.50;99.90
38500;DHT22;24269;51.894;4.622;2022-09-09T15:56:05;19.50;99.90
38500;DHT22;24269;51.894;4.622;2022-09-09T15:58:32;19.50;99.90
38500;DHT22;24269;51.894;4.622;2022-09-09T16:01:08;19.50;99.90
38500;DHT22;24269;51.894;4.622;2022-09-09T16:03:35;19.50;99.90
38500;DHT22;24269;51.894;4.622;2022-09-09T16:06:02;19.30;99.90
38500;DHT22;24269;51.894;4.622;2022-09-09T16:08:35;19.10;99.90
38500;DHT22;24269;51.894;4.622;2022-09-09T16:11:10;19.00;99.90
38500;DHT22;24269;51.894;4.622;2022-09-09T16:13:36;18.90;99.90
38500;DHT22;24269;51.894;4.622;2022-09-09T16:16:03;18.90;99.90
38500;DHT22;24269;51.894;4.622;2022-09-09T16:18:37;18.90;99.90
38500;DHT22;24269;51.894;4.622;2022-09-09T16:21:04;19.10;99.90
38500;DHT22;24269;51.894;4.622;2022-09-09T16:23:31;19.10;99.90
38500;DHT22;24269;51.894;4.622;2022-09-09T16:25:58;19.10;99.90
38500;DHT22;24269;51.894;4.622;2022-09-09T16:28:23;19.00;99.90
38500;DHT22;24269;51.894;4.622;2022-09-09T16:30:49;18.90;99.90
38500;DHT22;24269;51.894;4.622;2022-09-09T16:33:15;18.90;99.90
38500;DHT22;24269;51.894;4.622;2022-09-09T16:35:41;18.80;99.90
38500;DHT22;24269;51.894;4.622;2022-09-09T16:38:07;18.70;99.90
38500;DHT22;24269;51.894;4.622;2022-09-09T16:40:39;18.60;99.90
38500;DHT22;24269;51.894;4.622;2022-09-09T16:43:07;18.50;99.90
38500;DHT22;24269;51.894;4.622;2022-09-09T16:45:34;18.40;99.90
38500;DHT22;24269;51.894;4.622;2022-09-09T16:48:06;18.30;99.90
38500;DHT22;24269;51.894;4.622;2022-09-09T16:50:32;18.30;99.90
38500;DHT22;24269;51.894;4.622;2022-09-09T16:52:57;18.20;99.90
38500;DHT22;24269;51.894;4.622;2022-09-09T16:55:23;18.20;99.90
38500;DHT22;24269;51.894;4.622;2022-09-09T16:57:49;18.20;99.90
38500;DHT22;24269;51.894;4.622;2022-09-09T17:00:15;18.20;99.90
38500;DHT22;24269;51.894;4.622;2022-09-09T17:02:44;18.10;99.90
38500;DHT22;24269;51.894;4.622;2022-09-09T17:05:10;18.10;99.90
38500;DHT22;24269;51.894;4.622;2022-09-09T17:07:37;18.00;99.90
38500;DHT22;24269;51.894;4.622;2022-09-09T17:10:04;18.00;99.90
38500;DHT22;24269;51.894;4.622;2022-09-09T17:12:30;18.00;99.90
38500;DHT22;24269;51.894;4.622;2022-09-09T17:14:56;18.00;99.90
38500;DHT22;24269;51.894;4.622;2022-09-09T17:17:22;17.90;99.90
38500;DHT22;24269;51.894;4.622;2022-09-09T17:19:47;17.90;99.90
38500;DHT22;24269;51.894;4.622;2022-09-09T17:22:15;17.90;99.90
38500;DHT22;24269;51.894;4.622;2022-09-09T17:24:41;17.80;99.90
38500;DHT22;24269;51.894;4.622;2022-09-09T17:27:07;17.80;99.90
38500;DHT22;24269;51.894;4.622;2022-09-09T17:29:32;17.70;99.90
38500;DHT22;24269;51.894;4.622;2022-09-09T17:32:01;17.60;99.90
38500;DHT22;24269;51.894;4.622;2022-09-09T17:34:27;17.50;99.90
38500;DHT22;24269;51.894;4.622;2022-09-09T17:36:53;17.50;99.90
38500;DHT22;24269;51.894;4.622;2022-09-09T17:39:18;17.40;99.90
38500;DHT22;24269;51.894;4.622;2022-09-09T17:41:44;17.40;99.90
38500;DHT22;24269;51.894;4.622;2022-09-09T17:44:10;17.40;99.90
38500;DHT22;24269;51.894;4.622;2022-09-09T17:46:38;17.40;99.90
38500;DHT22;24269;51.894;4.622;2022-09-09T17:49:16;17.30;99.90
38500;DHT22;24269;51.894;4.622;2022-09-09T17:51:46;17.30;99.90
38500;DHT22;24269;51.894;4.622;2022-09-09T17:54:16;17.30;99.90